Saturday, November 18, 2017, 6:00 PM EST
Back to Local

KIWI, Wiscasset Municipal Airport

Location: Wiscasset, ME, United States Lat: 43.967
Local Time: 6:00 PM EST (23:00 GMT) Lon: -69.717
Time Zone: US/Eastern Elev: 68 ft

Show me the last for .
Show Decoded

2017-11-18 16:53 METAR KIWI 182153Z AUTO 00000KT 10SM OVC120 05/M02 A2976 RMK AO2 SLP078
                 T00501022 =
2017-11-18 15:53 METAR KIWI 182053Z AUTO 00000KT 10SM CLR 04/M03 A2978 RMK AO2 SLP087 T00391033
                 56020 =
2017-11-18 14:53 METAR KIWI 181953Z AUTO VRB03KT 10SM CLR 05/M07 A2980 RMK AO2 SLP091 T00501067 =
2017-11-18 13:53 METAR KIWI 181853Z AUTO 21006KT 10SM CLR 06/M08 A2982 RMK AO2 SLP099 T00561078 =
2017-11-18 12:53 METAR KIWI 181753Z AUTO VRB03KT 10SM CLR 06/M12 A2984 RMK AO2 SLP106 T00561117
                 10056 21056 56033 =
2017-11-18 11:53 METAR KIWI 181653Z AUTO 22004KT 10SM CLR 06/M12 A2987 RMK AO2 SLP114 T00561117 =
2017-11-18 10:53 METAR KIWI 181553Z AUTO 00000KT 10SM CLR 04/M11 A2990 RMK AO2 SLP125 T00441111 =
2017-11-18 09:53 METAR KIWI 181453Z AUTO 00000KT 10SM CLR 03/M10 A2994 RMK AO2 SLP140 T00331100
                 58004 =
2017-11-18 08:53 METAR KIWI 181353Z AUTO 00000KT 10SM CLR 00/M11 A2996 RMK AO2 SLP147 T00001106 =
2017-11-18 07:53 METAR KIWI 181253Z AUTO 00000KT 10SM CLR M02/M09 A2996 RMK AO2 SLP148 T10221089
                 =
2017-11-18 06:53 METAR KIWI 181153Z AUTO 00000KT 10SM CLR M06/M09 A2995 RMK AO2 SLP144 T10561089
                 11017 21056 53006 =
2017-11-18 05:53 METAR KIWI 181053Z AUTO 09003KT 10SM CLR M04/M09 A2994 RMK AO2 SLP140 T10441094
                 =
2017-11-18 04:53 METAR KIWI 180953Z AUTO 00000KT 10SM CLR M03/M11 A2993 RMK AO2 SLP137 T10281106
                 =
2017-11-18 03:53 METAR KIWI 180853Z AUTO VRB03KT 10SM CLR M02/M11 A2994 RMK AO2 SLP138 T10221106
                 58005 =
2017-11-18 02:53 METAR KIWI 180753Z AUTO 28003KT 10SM CLR M02/M10 A2994 RMK AO2 SLP141 T10221100
                 =
2017-11-18 01:53 METAR KIWI 180653Z AUTO 29004KT 10SM CLR M02/M10 A2995 RMK AO2 SLP144 T10171100
                 =
2017-11-18 00:53 METAR KIWI 180553Z AUTO VRB04KT 10SM CLR M02/M09 A2995 RMK AO2 SLP143 T10221089
                 11006 21028 50007 =
2017-11-17 23:53 METAR KIWI 180453Z AUTO 27004KT 10SM CLR M02/M08 A2995 RMK AO2 SLP143 T10221083
                 400611022 =
2017-11-17 22:53 METAR KIWI 180353Z AUTO 00000KT 10SM CLR M02/M08 A2996 RMK AO2 SLP144 T10171083
                 =
2017-11-17 21:53 METAR KIWI 180253Z AUTO VRB06KT 10SM CLR M02/M08 A2993 RMK AO2 SLP134 T10171078
                 50005 =
2017-11-17 20:53 METAR KIWI 180153Z AUTO VRB06KT 10SM CLR M01/M08 A2993 RMK AO2 SLP136 T10111078
                 =
2017-11-17 19:53 METAR KIWI 180053Z AUTO VRB06KT 10SM CLR M01/M08 A2993 RMK AO2 SLP136 T10111078
                 =
2017-11-17 18:53 METAR KIWI 172353Z AUTO 29006KT 10SM CLR M01/M07 A2991 RMK AO2 SLP130 T10061072
                 10044 21006 51025 =

Support USWX by starting your Amazon purchase here.